Time,TemperatureF,DewpointF,PressureIn,WindDirection,WindDirectionDegrees,WindSpeedMPH,WindSpeedGustMPH,Humidity,HourlyPrecipIn,Conditions,Clouds,dailyrainin,SoftwareType,DateUTC
2013-04-03 00:00:00,51.1,32.6,30.00,NNW,347,5.0,16.0,49,0.00,,,0.00,WUHU216DAVISVP2,2013-04-03 06:00:00,
2013-04-03 00:05:00,51.1,32.6,30.00,NW,307,7.0,16.0,49,0.00,,,0.00,WUHU216DAVISVP2,2013-04-03 06:05:00,
2013-04-03 00:10:00,51.1,32.6,30.00,WNW,299,6.0,13.0,49,0.00,,,0.00,WUHU216DAVISVP2,2013-04-03 06:10:00,
2013-04-03 00:15:00,51.1,32.6,29.99,NW,316,6.0,13.0,49,0.00,,,0.00,WUHU216DAVISVP2,2013-04-03 06:15:00,
2013-04-03 00:20:00,51.0,33.0,29.99,WNW,287,11.0,13.0,50,0.00,,,0.00,WUHU216DAVISVP2,2013-04-03 06:20:00,
2013-04-03 00:25:00,51.1,33.1,30.00,WSW,252,10.0,15.0,50,0.00,,,0.00,WUHU216DAVISVP2,2013-04-03 06:25:00,
2013-04-03 00:30:00,51.1,33.1,30.00,NNW,335,6.0,16.0,50,0.00,,,0.00,WUHU216DAVISVP2,2013-04-03 06:30:00,
2013-04-03 00:35:00,51.0,33.0,30.00,NW,309,4.0,16.0,50,0.00,,,0.00,WUHU216DAVISVP2,2013-04-03 06:35:00,
2013-04-03 00:40:00,50.7,33.2,30.00,NW,325,4.0,16.0,51,0.00,,,0.00,WUHU216DAVISVP2,2013-04-03 06:40:00,
2013-04-03 00:45:00,50.4,32.9,30.00,WNW,294,4.0,14.0,51,0.00,,,0.00,WUHU216DAVISVP2,2013-04-03 06:45:00,
2013-04-03 00:50:00,50.1,33.2,30.00,NW,309,6.0,14.0,52,0.00,,,0.00,WUHU216DAVISVP2,2013-04-03 06:50:00,
2013-04-03 00:55:00,49.9,33.0,30.00,WNW,301,9.0,12.0,52,0.00,,,0.00,WUHU216DAVISVP2,2013-04-03 06:55:00,
2013-04-03 01:00:00,49.5,32.6,30.01,ENE,78,0.0,10.0,52,0.00,,,0.00,WUHU216DAVISVP2,2013-04-03 07:00:00,
2013-04-03 01:06:00,48.1,31.3,30.01,NNE,23,0.0,10.0,52,0.00,,,0.00,WUHU216DAVISVP2,2013-04-03 07:06:00,
2013-04-03 01:11:00,46.5,30.8,30.01,NNE,22,0.0,9.0,54,0.00,,,0.00,WUHU216DAVISVP2,2013-04-03 07:11:00,
2013-04-03 01:16:00,45.3,31.0,30.01,NNE,25,0.0,6.0,57,0.00,,,0.00,WUHU216DAVISVP2,2013-04-03 07:16:00,
2013-04-03 01:21:00,44.4,31.0,30.01,NNW,332,1.0,2.0,59,0.00,,,0.00,WUHU216DAVISVP2,2013-04-03 07:21:00,
2013-04-03 01:26:00,44.9,31.9,30.02,East,94,2.0,4.0,60,0.00,,,0.00,WUHU216DAVISVP2,2013-04-03 07:26:00,
2013-04-03 01:31:00,44.6,31.2,30.02,ENE,65,0.0,4.0,59,0.00,,,0.00,WUHU216DAVISVP2,2013-04-03 07:31:00,
2013-04-03 01:36:00,44.2,31.3,30.02,ENE,63,0.0,3.0,60,0.00,,,0.00,WUHU216DAVISVP2,2013-04-03 07:36:00,
2013-04-03 01:41:00,44.4,31.9,30.02,ENE,68,1.0,4.0,61,0.00,,,0.00,WUHU216DAVISVP2,2013-04-03 07:41:00,
2013-04-03 01:46:00,44.6,31.6,30.02,NE,56,1.0,4.0,60,0.00,,,0.00,WUHU216DAVISVP2,2013-04-03 07:46:00,
2013-04-03 01:51:00,44.4,31.5,30.02,ENE,57,0.0,4.0,60,0.00,,,0.00,WUHU216DAVISVP2,2013-04-03 07:51:00,
2013-04-03 01:57:00,44.3,31.8,30.02,NE,55,0.0,4.0,61,0.00,,,0.00,WUHU216DAVISVP2,2013-04-03 07:57:00,
2013-04-03 02:02:00,44.2,31.6,30.02,ENE,57,0.0,3.0,61,0.00,,,0.00,WUHU216DAVISVP2,2013-04-03 08:02:00,
2013-04-03 02:07:00,43.6,31.0,30.02,NE,56,1.0,2.0,61,0.00,,,0.00,WUHU216DAVISVP2,2013-04-03 08:07:00,
2013-04-03 02:12:00,43.6,31.5,30.02,ENE,70,0.0,3.0,62,0.00,,,0.00,WUHU216DAVISVP2,2013-04-03 08:12:00,
2013-04-03 02:17:00,43.2,31.1,30.02,NE,53,0.0,4.0,62,0.00,,,0.00,WUHU216DAVISVP2,2013-04-03 08:17:00,
2013-04-03 02:22:00,42.7,31.1,30.01,NE,50,1.0,4.0,63,0.00,,,0.00,WUHU216DAVISVP2,2013-04-03 08:22:00,
2013-04-03 02:27:00,42.9,31.6,30.01,ENE,57,2.0,4.0,64,0.00,,,0.00,WUHU216DAVISVP2,2013-04-03 08:27:00,
2013-04-03 02:32:00,43.3,31.6,30.01,ENE,58,2.0,4.0,63,0.00,,,0.00,WUHU216DAVISVP2,2013-04-03 08:32:00,
2013-04-03 02:37:00,42.2,29.4,30.01,ESE,106,2.0,3.0,60,0.00,,,0.00,WUHU216DAVISVP2,2013-04-03 08:37:00,
2013-04-03 02:42:00,39.6,28.1,30.02,ESE,111,0.0,3.0,63,0.00,,,0.00,WUHU216DAVISVP2,2013-04-03 08:42:00,
2013-04-03 02:47:00,37.3,26.3,30.01,SW,233,0.0,3.0,64,0.00,,,0.00,WUHU216DAVISVP2,2013-04-03 08:47:00,
2013-04-03 02:52:00,36.2,27.1,30.01,ENE,72,1.0,3.0,69,0.00,,,0.00,WUHU216DAVISVP2,2013-04-03 08:52:00,
2013-04-03 02:57:00,35.6,26.8,30.02,North,8,0.0,2.0,70,0.00,,,0.00,WUHU216DAVISVP2,2013-04-03 08:57:00,
2013-04-03 03:02:00,35.5,27.4,30.02,East,81,4.0,7.0,72,0.00,,,0.00,WUHU216DAVISVP2,2013-04-03 09:02:00,
2013-04-03 03:07:00,35.4,28.6,30.02,ENE,57,3.0,7.0,76,0.00,,,0.00,WUHU216DAVISVP2,2013-04-03 09:07:00,
2013-04-03 03:12:00,37.3,30.2,30.02,ENE,70,1.0,6.0,75,0.00,,,0.00,WUHU216DAVISVP2,2013-04-03 09:12:00,
2013-04-03 03:17:00,38.3,30.5,30.02,ENE,63,0.0,6.0,73,0.00,,,0.00,WUHU216DAVISVP2,2013-04-03 09:17:00,
2013-04-03 03:22:00,38.7,31.2,30.02,ENE,61,1.0,3.0,74,0.00,,,0.00,WUHU216DAVISVP2,2013-04-03 09:22:00,
2013-04-03 03:28:00,39.4,30.9,30.03,ENE,61,0.0,2.0,71,0.00,,,0.00,WUHU216DAVISVP2,2013-04-03 09:28:00,
2013-04-03 03:32:00,39.1,30.2,30.02,ENE,70,0.0,2.0,70,0.00,,,0.00,WUHU216DAVISVP2,2013-04-03 09:32:00,
2013-04-03 03:38:00,38.9,30.7,30.02,ENE,71,0.0,1.0,72,0.00,,,0.00,WUHU216DAVISVP2,2013-04-03 09:38:00,
2013-04-03 03:43:00,38.8,30.6,30.03,ENE,70,0.0,1.0,72,0.00,,,0.00,WUHU216DAVISVP2,2013-04-03 09:43:00,
2013-04-03 03:48:00,38.9,30.7,30.03,ENE,71,0.0,1.0,72,0.00,,,0.00,WUHU216DAVISVP2,2013-04-03 09:48:00,
2013-04-03 03:53:00,38.5,29.9,30.03,ENE,72,0.0,0.0,71,0.00,,,0.00,WUHU216DAVISVP2,2013-04-03 09:53:00,
2013-04-03 03:58:00,37.6,29.4,30.04,ENE,72,0.0,0.0,72,0.00,,,0.00,WUHU216DAVISVP2,2013-04-03 09:58:00,
2013-04-03 04:03:00,37.3,29.4,30.03,ENE,72,0.0,0.0,73,0.00,,,0.00,WUHU216DAVISVP2,2013-04-03 10:03:00,
2013-04-03 04:08:00,36.9,29.4,30.03,ENE,70,0.0,0.0,74,0.00,,,0.00,WUHU216DAVISVP2,2013-04-03 10:08:00,
2013-04-03 04:13:00,36.7,29.9,30.03,ENE,72,0.0,0.0,76,0.00,,,0.00,WUHU216DAVISVP2,2013-04-03 10:13:00,
2013-04-03 04:18:00,35.5,26.8,30.03,East,79,0.0,0.0,70,0.00,,,0.00,WUHU216DAVISVP2,2013-04-03 10:18:00,
2013-04-03 04:23:00,34.0,26.6,30.03,East,100,0.0,0.0,74,0.00,,,0.00,WUHU216DAVISVP2,2013-04-03 10:23:00,
2013-04-03 04:28:00,33.0,25.7,30.03,ENE,61,3.0,4.0,74,0.00,,,0.00,WUHU216DAVISVP2,2013-04-03 10:28:00,
2013-04-03 04:33:00,31.7,25.3,30.04,NE,50,2.0,5.0,77,0.00,,,0.00,WUHU216DAVISVP2,2013-04-03 10:33:00,
2013-04-03 04:38:00,32.6,28.0,30.04,NE,46,2.0,5.0,83,0.00,,,0.00,WUHU216DAVISVP2,2013-04-03 10:38:00,
2013-04-03 04:43:00,34.8,29.6,30.04,NE,46,2.0,4.0,81,0.00,,,0.00,WUHU216DAVISVP2,2013-04-03 10:43:00,
2013-04-03 04:48:00,36.6,30.7,30.05,ENE,58,1.0,4.0,79,0.00,,,0.00,WUHU216DAVISVP2,2013-04-03 10:48:00,
2013-04-03 04:53:00,38.1,31.2,30.05,ENE,57,1.0,3.0,76,0.00,,,0.00,WUHU216DAVISVP2,2013-04-03 10:53:00,
2013-04-03 04:58:00,39.1,31.6,30.05,ENE,58,0.0,3.0,74,0.00,,,0.00,WUHU216DAVISVP2,2013-04-03 10:58:00,
2013-04-03 05:03:00,39.0,30.5,30.06,NE,55,0.0,2.0,71,0.00,,,0.00,WUHU216DAVISVP2,2013-04-03 11:03:00,
2013-04-03 05:08:00,37.7,30.2,30.06,NE,56,0.0,2.0,74,0.00,,,0.00,WUHU216DAVISVP2,2013-04-03 11:08:00,
2013-04-03 05:13:00,37.7,30.9,30.06,NW,318,2.0,3.0,76,0.00,,,0.00,WUHU216DAVISVP2,2013-04-03 11:13:00,
2013-04-03 05:18:00,38.3,30.8,30.06,NW,304,0.0,3.0,74,0.00,,,0.00,WUHU216DAVISVP2,2013-04-03 11:18:00,
2013-04-03 05:23:00,38.4,30.6,30.06,SE,139,0.0,3.0,73,0.00,,,0.00,WUHU216DAVISVP2,2013-04-03 11:23:00,
2013-04-03 05:28:00,36.0,26.9,30.07,East,86,1.0,3.0,69,0.00,,,0.00,WUHU216DAVISVP2,2013-04-03 11:28:00,
2013-04-03 05:33:00,34.2,27.1,30.07,ENE,72,2.0,3.0,75,0.00,,,0.00,WUHU216DAVISVP2,2013-04-03 11:33:00,
2013-04-03 05:38:00,33.3,26.9,30.07,ENE,61,5.0,6.0,77,0.00,,,0.00,WUHU216DAVISVP2,2013-04-03 11:38:00,
2013-04-03 05:43:00,33.7,28.5,30.07,ENE,58,3.0,6.0,81,0.00,,,0.00,WUHU216DAVISVP2,2013-04-03 11:43:00,
2013-04-03 05:48:00,34.8,29.3,30.07,NE,43,4.0,5.0,80,0.00,,,0.00,WUHU216DAVISVP2,2013-04-03 11:48:00,
2013-04-03 05:53:00,36.2,30.3,30.07,NE,37,3.0,5.0,79,0.00,,,0.00,WUHU216DAVISVP2,2013-04-03 11:53:00,
2013-04-03 05:58:00,37.3,30.8,30.07,ENE,65,1.0,5.0,77,0.00,,,0.00,WUHU216DAVISVP2,2013-04-03 11:58:00,
2013-04-03 06:03:00,37.9,30.7,30.07,East,81,4.0,4.0,75,0.00,,,0.00,WUHU216DAVISVP2,2013-04-03 12:03:00,
2013-04-03 06:08:00,38.4,31.2,30.06,NE,56,3.0,5.0,75,0.00,,,0.00,WUHU216DAVISVP2,2013-04-03 12:08:00,
2013-04-03 06:13:00,38.6,31.1,30.06,ENE,57,3.0,5.0,74,0.00,,,0.00,WUHU216DAVISVP2,2013-04-03 12:13:00,
2013-04-03 06:18:00,38.9,31.4,30.06,ENE,70,3.0,5.0,74,0.00,,,0.00,WUHU216DAVISVP2,2013-04-03 12:18:00,
2013-04-03 06:23:00,39.1,31.2,30.06,ENE,71,2.0,5.0,73,0.00,,,0.00,WUHU216DAVISVP2,2013-04-03 12:23:00,
2013-04-03 06:28:00,39.1,31.2,30.06,NE,51,1.0,5.0,73,0.00,,,0.00,WUHU216DAVISVP2,2013-04-03 12:28:00,
2013-04-03 06:33:00,39.6,31.0,30.06,SE,124,2.0,4.0,71,0.00,,,0.00,WUHU216DAVISVP2,2013-04-03 12:33:00,
2013-04-03 06:38:00,36.1,27.3,30.07,ESE,113,2.0,3.0,70,0.00,,,0.00,WUHU216DAVISVP2,2013-04-03 12:38:00,
2013-04-03 06:43:00,33.5,25.8,30.07,ENE,70,1.0,4.0,73,0.00,,,0.00,WUHU216DAVISVP2,2013-04-03 12:43:00,
2013-04-03 06:48:00,32.1,26.0,30.07,ENE,75,2.0,4.0,78,0.00,,,0.00,WUHU216DAVISVP2,2013-04-03 12:48:00,
2013-04-03 06:53:00,31.7,26.5,30.07,ENE,62,3.0,4.0,81,0.00,,,0.00,WUHU216DAVISVP2,2013-04-03 12:53:00,
2013-04-03 06:58:00,32.1,27.2,30.07,NE,50,2.0,6.0,82,0.00,,,0.00,WUHU216DAVISVP2,2013-04-03 12:58:00,
2013-04-03 07:03:00,32.7,27.8,30.07,ENE,61,5.0,6.0,82,0.00,,,0.00,WUHU216DAVISVP2,2013-04-03 13:03:00,
2013-04-03 07:08:00,31.9,26.1,30.07,ENE,65,4.0,6.0,79,0.00,,,0.00,WUHU216DAVISVP2,2013-04-03 13:08:00,
2013-04-03 07:13:00,31.0,25.9,30.07,NE,51,3.0,6.0,81,0.00,,,0.00,WUHU216DAVISVP2,2013-04-03 13:13:00,
2013-04-03 07:18:00,30.5,25.7,30.07,East,94,2.0,6.0,82,0.00,,,0.00,WUHU216DAVISVP2,2013-04-03 13:18:00,
2013-04-03 07:23:00,30.0,25.4,30.08,ESE,108,2.0,5.0,83,0.00,,,0.00,WUHU216DAVISVP2,2013-04-03 13:23:00,
2013-04-03 07:28:00,29.7,25.4,30.08,ENE,63,1.0,5.0,84,0.00,,,0.00,WUHU216DAVISVP2,2013-04-03 13:28:00,
2013-04-03 07:33:00,30.0,25.7,30.08,East,91,4.0,4.0,84,0.00,,,0.00,WUHU216DAVISVP2,2013-04-03 13:33:00,
2013-04-03 07:38:00,31.0,26.7,30.08,ENE,77,3.0,5.0,84,0.00,,,0.00,WUHU216DAVISVP2,2013-04-03 13:38:00,
2013-04-03 07:43:00,31.9,27.0,30.08,ENE,77,3.0,5.0,82,0.00,,,0.00,WUHU216DAVISVP2,2013-04-03 13:43:00,
2013-04-03 07:48:00,32.8,27.6,30.09,NW,314,1.0,4.0,81,0.00,,,0.00,WUHU216DAVISVP2,2013-04-03 13:48:00,
2013-04-03 07:53:00,34.4,29.8,30.09,NW,309,3.0,6.0,83,0.00,,,0.00,WUHU216DAVISVP2,2013-04-03 13:53:00,
2013-04-03 07:58:00,36.4,30.8,30.09,WNW,295,2.0,6.0,80,0.00,,,0.00,WUHU216DAVISVP2,2013-04-03 13:58:00,
2013-04-03 08:03:00,38.1,31.6,30.09,NW,311,2.0,6.0,77,0.00,,,0.00,WUHU216DAVISVP2,2013-04-03 14:03:00,
2013-04-03 08:09:00,39.9,32.7,30.09,WNW,291,1.0,6.0,75,0.00,,,0.00,WUHU216DAVISVP2,2013-04-03 14:09:00,
2013-04-03 08:13:00,41.7,33.3,30.10,WNW,293,1.0,5.0,72,0.00,,,0.00,WUHU216DAVISVP2,2013-04-03 14:13:00,
2013-04-03 08:18:00,43.1,33.3,30.10,SE,136,0.0,4.0,68,0.00,,,0.00,WUHU216DAVISVP2,2013-04-03 14:18:00,
2013-04-03 08:23:00,44.1,33.6,30.10,WNW,301,5.0,5.0,66,0.00,,,0.00,WUHU216DAVISVP2,2013-04-03 14:23:00,
2013-04-03 08:28:00,44.5,33.6,30.10,NW,304,1.0,6.0,65,0.00,,,0.00,WUHU216DAVISVP2,2013-04-03 14:28:00,
2013-04-03 08:34:00,45.5,34.0,30.10,WNW,302,0.0,6.0,64,0.00,,,0.00,WUHU216DAVISVP2,2013-04-03 14:34:00,
2013-04-03 08:39:00,46.6,34.4,30.10,SE,136,0.0,6.0,62,0.00,,,0.00,WUHU216DAVISVP2,2013-04-03 14:39:00,
2013-04-03 08:44:00,47.0,33.9,30.10,ESE,116,0.0,4.0,60,0.00,,,0.00,WUHU216DAVISVP2,2013-04-03 14:44:00,
2013-04-03 08:49:00,46.9,33.8,30.10,ESE,113,2.0,3.0,60,0.00,,,0.00,WUHU216DAVISVP2,2013-04-03 14:49:00,
2013-04-03 08:54:00,46.7,33.2,30.10,ESE,105,1.0,3.0,59,0.00,,,0.00,WUHU216DAVISVP2,2013-04-03 14:54:00,
2013-04-03 08:59:00,47.2,33.7,30.10,ENE,72,0.0,3.0,59,0.00,,,0.00,WUHU216DAVISVP2,2013-04-03 14:59:00,
2013-04-03 09:04:00,48.4,34.8,30.10,ENE,78,0.0,3.0,59,0.00,,,0.00,WUHU216DAVISVP2,2013-04-03 15:04:00,
2013-04-03 09:09:00,49.3,34.3,30.10,NE,46,0.0,3.0,56,0.00,,,0.00,WUHU216DAVISVP2,2013-04-03 15:09:00,
2013-04-03 09:14:00,49.7,34.2,30.09,East,101,0.0,2.0,55,0.00,,,0.00,WUHU216DAVISVP2,2013-04-03 15:14:00,
2013-04-03 09:19:00,50.3,34.3,30.09,SE,134,1.0,2.0,54,0.00,,,0.00,WUHU216DAVISVP2,2013-04-03 15:19:00,
2013-04-03 09:24:00,51.4,34.9,30.09,SSE,147,0.0,2.0,53,0.00,,,0.00,WUHU216DAVISVP2,2013-04-03 15:24:00,
2013-04-03 09:29:00,52.3,34.7,30.09,South,170,2.0,4.0,51,0.00,,,0.00,WUHU216DAVISVP2,2013-04-03 15:29:00,
2013-04-03 09:34:00,52.7,34.6,30.09,SE,136,4.0,4.0,50,0.00,,,0.00,WUHU216DAVISVP2,2013-04-03 15:34:00,
2013-04-03 09:39:00,53.0,34.3,30.09,South,190,2.0,4.0,49,0.00,,,0.00,WUHU216DAVISVP2,2013-04-03 15:39:00,
2013-04-03 09:44:00,52.9,34.2,30.09,SW,224,1.0,4.0,49,0.00,,,0.00,WUHU216DAVISVP2,2013-04-03 15:44:00,
2013-04-03 09:49:00,53.0,34.3,30.10,SE,140,1.0,4.0,49,0.00,,,0.00,WUHU216DAVISVP2,2013-04-03 15:49:00,
2013-04-03 09:54:00,53.6,34.3,30.09,SW,233,0.0,3.0,48,0.00,,,0.00,WUHU216DAVISVP2,2013-04-03 15:54:00,
2013-04-03 09:59:00,54.3,33.9,30.09,SSE,168,0.0,4.0,46,0.00,,,0.00,WUHU216DAVISVP2,2013-04-03 15:59:00,
2013-04-03 10:04:00,55.0,33.9,30.10,WSW,238,1.0,4.0,45,0.00,,,0.00,WUHU216DAVISVP2,2013-04-03 16:04:00,
2013-04-03 10:09:00,54.3,33.9,30.10,NW,326,2.0,3.0,46,0.00,,,0.00,WUHU216DAVISVP2,2013-04-03 16:09:00,
2013-04-03 10:15:00,54.5,34.1,30.09,WSW,250,0.0,3.0,46,0.00,,,0.00,WUHU216DAVISVP2,2013-04-03 16:15:00,
2013-04-03 10:20:00,55.9,34.2,30.09,WSW,238,3.0,5.0,44,0.00,,,0.00,WUHU216DAVISVP2,2013-04-03 16:20:00,
2013-04-03 10:25:00,56.3,34.0,30.09,South,172,0.0,5.0,43,0.00,,,0.00,WUHU216DAVISVP2,2013-04-03 16:25:00,
2013-04-03 10:30:00,57.2,33.7,30.08,SSW,203,1.0,5.0,41,0.00,,,0.00,WUHU216DAVISVP2,2013-04-03 16:30:00,
2013-04-03 10:35:00,57.9,34.2,30.09,SSW,208,1.0,5.0,41,0.00,,,0.00,WUHU216DAVISVP2,2013-04-03 16:35:00,
2013-04-03 10:40:00,58.3,33.3,30.08,SW,222,2.0,4.0,39,0.00,,,0.00,WUHU216DAVISVP2,2013-04-03 16:40:00,
2013-04-03 10:45:00,58.0,32.5,30.08,WNW,298,3.0,4.0,38,0.00,,,0.00,WUHU216DAVISVP2,2013-04-03 16:45:00,
2013-04-03 10:50:00,57.7,34.1,30.08,West,280,2.0,4.0,41,0.00,,,0.00,WUHU216DAVISVP2,2013-04-03 16:50:00,
2013-04-03 10:55:00,58.1,34.5,30.08,SW,218,2.0,4.0,41,0.00,,,0.00,WUHU216DAVISVP2,2013-04-03 16:55:00,
2013-04-03 11:00:00,59.1,34.1,30.08,East,87,4.0,5.0,39,0.00,,,0.00,WUHU216DAVISVP2,2013-04-03 17:00:00,
2013-04-03 11:05:00,59.5,33.2,30.08,ENE,75,2.0,5.0,37,0.00,,,0.00,WUHU216DAVISVP2,2013-04-03 17:05:00,
2013-04-03 11:10:00,59.5,32.5,30.07,ESE,103,3.0,5.0,36,0.00,,,0.00,WUHU216DAVISVP2,2013-04-03 17:10:00,
2013-04-03 11:15:00,60.2,33.8,30.08,SSW,193,4.0,6.0,37,0.00,,,0.00,WUHU216DAVISVP2,2013-04-03 17:15:00,
2013-04-03 11:20:00,60.7,33.6,30.07,SSE,150,1.0,7.0,36,0.00,,,0.00,WUHU216DAVISVP2,2013-04-03 17:20:00,
2013-04-03 11:25:00,61.8,32.4,30.07,ESE,110,5.0,7.0,33,0.00,,,0.00,WUHU216DAVISVP2,2013-04-03 17:25:00,
2013-04-03 11:30:00,61.4,31.3,30.07,WNW,288,1.0,7.0,32,0.00,,,0.00,WUHU216DAVISVP2,2013-04-03 17:30:00,
2013-04-03 11:35:00,61.9,31.7,30.07,ENE,72,3.0,8.0,32,0.00,,,0.00,WUHU216DAVISVP2,2013-04-03 17:35:00,
2013-04-03 11:40:00,62.6,30.7,30.07,South,188,4.0,8.0,30,0.00,,,0.00,WUHU216DAVISVP2,2013-04-03 17:40:00,
2013-04-03 11:45:00,62.8,31.7,30.07,ENE,65,5.0,8.0,31,0.00,,,0.00,WUHU216DAVISVP2,2013-04-03 17:45:00,
2013-04-03 11:50:00,63.5,31.5,30.07,NNW,337,1.0,8.0,30,0.00,,,0.00,WUHU216DAVISVP2,2013-04-03 17:50:00,
2013-04-03 11:55:00,63.3,31.3,30.07,ESE,113,5.0,9.0,30,0.00,,,0.00,WUHU216DAVISVP2,2013-04-03 17:55:00,
2013-04-03 12:00:00,63.5,31.5,30.07,SSE,156,5.0,9.0,30,0.00,,,0.00,WUHU216DAVISVP2,2013-04-03 18:00:00,
2013-04-03 12:05:00,64.2,31.3,30.07,East,96,1.0,8.0,29,0.00,,,0.00,WUHU216DAVISVP2,2013-04-03 18:05:00,
2013-04-03 12:10:00,65.0,30.9,30.07,SSW,193,4.0,7.0,28,0.00,,,0.00,WUHU216DAVISVP2,2013-04-03 18:10:00,
2013-04-03 12:15:00,65.1,30.1,30.07,ENE,74,3.0,7.0,27,0.00,,,0.00,WUHU216DAVISVP2,2013-04-03 18:15:00,
2013-04-03 12:20:00,64.6,29.7,30.06,West,270,4.0,8.0,27,0.00,,,0.00,WUHU216DAVISVP2,2013-04-03 18:20:00,
2013-04-03 12:25:00,63.9,30.0,30.06,ESE,115,1.0,8.0,28,0.00,,,0.00,WUHU216DAVISVP2,2013-04-03 18:25:00,
2013-04-03 12:31:00,64.9,28.1,30.06,East,91,1.0,8.0,25,0.00,,,0.00,WUHU216DAVISVP2,2013-04-03 18:31:00,
2013-04-03 12:36:00,64.8,28.0,30.06,WNW,295,3.0,8.0,25,0.00,,,0.00,WUHU216DAVISVP2,2013-04-03 18:36:00,
2013-04-03 12:41:00,64.4,28.6,30.06,WSW,245,5.0,7.0,26,0.00,,,0.00,WUHU216DAVISVP2,2013-04-03 18:41:00,
2013-04-03 12:46:00,64.4,28.6,30.05,SW,225,1.0,7.0,26,0.00,,,0.00,WUHU216DAVISVP2,2013-04-03 18:46:00,
2013-04-03 12:51:00,64.7,28.9,30.05,NNW,345,4.0,6.0,26,0.00,,,0.00,WUHU216DAVISVP2,2013-04-03 18:51:00,
2013-04-03 12:56:00,64.9,29.0,30.05,WNW,301,3.0,8.0,26,0.00,,,0.00,WUHU216DAVISVP2,2013-04-03 18:56:00,
2013-04-03 13:01:00,65.8,30.7,30.05,West,264,4.0,8.0,27,0.00,,,0.00,WUHU216DAVISVP2,2013-04-03 19:01:00,
2013-04-03 13:06:00,66.2,29.2,30.05,SW,217,4.0,8.0,25,0.00,,,0.00,WUHU216DAVISVP2,2013-04-03 19:06:00,
2013-04-03 13:11:00,67.1,30.0,30.04,SSW,194,2.0,8.0,25,0.00,,,0.00,WUHU216DAVISVP2,2013-04-03 19:11:00,
2013-04-03 13:16:00,66.6,27.5,30.05,SSW,208,2.0,11.0,23,0.00,,,0.00,WUHU216DAVISVP2,2013-04-03 19:16:00,
2013-04-03 13:21:00,66.7,28.6,30.04,SW,223,2.0,11.0,24,0.00,,,0.00,WUHU216DAVISVP2,2013-04-03 19:21:00,
2013-04-03 13:26:00,67.0,27.9,30.04,East,98,2.0,11.0,23,0.00,,,0.00,WUHU216DAVISVP2,2013-04-03 19:26:00,
2013-04-03 13:31:00,67.3,27.1,30.03,NE,47,1.0,11.0,22,0.00,,,0.00,WUHU216DAVISVP2,2013-04-03 19:31:00,
2013-04-03 13:37:00,67.4,28.2,30.03,SSW,193,4.0,7.0,23,0.00,,,0.00,WUHU216DAVISVP2,2013-04-03 19:37:00,
2013-04-03 13:42:00,68.5,30.2,30.03,SSW,204,2.0,6.0,24,0.00,,,0.00,WUHU216DAVISVP2,2013-04-03 19:42:00,
2013-04-03 13:47:00,68.8,29.4,30.02,West,271,4.0,7.0,23,0.00,,,0.00,WUHU216DAVISVP2,2013-04-03 19:47:00,
2013-04-03 13:52:00,69.2,28.6,30.02,ESE,112,5.0,11.0,22,0.00,,,0.00,WUHU216DAVISVP2,2013-04-03 19:52:00,
2013-04-03 13:57:00,69.0,27.4,30.02,SSE,160,2.0,11.0,21,0.00,,,0.00,WUHU216DAVISVP2,2013-04-03 19:57:00,
2013-04-03 14:02:00,68.6,28.1,30.02,SSW,210,4.0,11.0,22,0.00,,,0.00,WUHU216DAVISVP2,2013-04-03 20:02:00,
2013-04-03 14:07:00,68.8,26.0,30.02,SW,215,11.0,11.0,20,0.00,,,0.00,WUHU216DAVISVP2,2013-04-03 20:07:00,
2013-04-03 14:12:00,69.2,28.6,30.02,ESE,119,2.0,11.0,22,0.00,,,0.00,WUHU216DAVISVP2,2013-04-03 20:12:00,
2013-04-03 14:17:00,69.7,26.8,30.02,South,179,3.0,11.0,20,0.00,,,0.00,WUHU216DAVISVP2,2013-04-03 20:17:00,
2013-04-03 14:22:00,69.1,27.4,30.02,SW,219,2.0,11.0,21,0.00,,,0.00,WUHU216DAVISVP2,2013-04-03 20:22:00,
2013-04-03 14:27:00,68.6,27.0,30.01,SW,215,0.0,10.0,21,0.00,,,0.00,WUHU216DAVISVP2,2013-04-03 20:27:00,
2013-04-03 14:32:00,68.8,28.3,30.01,WSW,253,3.0,10.0,22,0.00,,,0.00,WUHU216DAVISVP2,2013-04-03 20:32:00,
2013-04-03 14:37:00,68.7,27.1,30.01,NW,320,2.0,10.0,21,0.00,,,0.00,WUHU216DAVISVP2,2013-04-03 20:37:00,
2013-04-03 14:42:00,68.5,26.9,30.01,SE,141,1.0,10.0,21,0.00,,,0.00,WUHU216DAVISVP2,2013-04-03 20:42:00,
2013-04-03 14:47:00,69.5,25.4,30.01,SE,144,2.0,10.0,19,0.00,,,0.00,WUHU216DAVISVP2,2013-04-03 20:47:00,
2013-04-03 14:52:00,69.7,26.8,30.01,SW,236,2.0,10.0,20,0.00,,,0.00,WUHU216DAVISVP2,2013-04-03 20:52:00,
2013-04-03 14:57:00,69.7,27.9,30.01,WNW,287,5.0,14.0,21,0.00,,,0.00,WUHU216DAVISVP2,2013-04-03 20:57:00,
2013-04-03 15:02:00,69.4,26.5,30.01,WNW,294,3.0,14.0,20,0.00,,,0.00,WUHU216DAVISVP2,2013-04-03 21:02:00,
2013-04-03 15:07:00,69.0,26.2,30.00,West,262,9.0,13.0,20,0.00,,,0.00,WUHU216DAVISVP2,2013-04-03 21:07:00,
2013-04-03 15:12:00,69.7,26.8,30.00,West,278,5.0,14.0,20,0.00,,,0.00,WUHU216DAVISVP2,2013-04-03 21:12:00,
2013-04-03 15:17:00,69.4,25.3,30.00,East,80,1.0,14.0,19,0.00,,,0.00,WUHU216DAVISVP2,2013-04-03 21:17:00,
2013-04-03 15:22:00,69.6,26.7,30.00,West,269,3.0,14.0,20,0.00,,,0.00,WUHU216DAVISVP2,2013-04-03 21:22:00,
2013-04-03 15:27:00,69.5,26.6,29.99,WNW,290,2.0,11.0,20,0.00,,,0.00,WUHU216DAVISVP2,2013-04-03 21:27:00,
2013-04-03 15:32:00,69.7,26.8,29.99,SSW,197,8.0,15.0,20,0.00,,,0.00,WUHU216DAVISVP2,2013-04-03 21:32:00,
2013-04-03 15:37:00,69.8,25.6,29.99,WNW,285,5.0,15.0,19,0.00,,,0.00,WUHU216DAVISVP2,2013-04-03 21:37:00,
2013-04-03 15:42:00,69.6,26.7,29.99,West,277,8.0,15.0,20,0.00,,,0.00,WUHU216DAVISVP2,2013-04-03 21:42:00,
2013-04-03 15:47:00,69.5,27.8,29.99,NW,310,6.0,16.0,21,0.00,,,0.00,WUHU216DAVISVP2,2013-04-03 21:47:00,
2013-04-03 15:52:00,70.3,27.3,29.99,SW,215,5.0,16.0,20,0.00,,,0.00,WUHU216DAVISVP2,2013-04-03 21:52:00,
2013-04-03 15:57:00,70.1,27.1,29.99,WNW,297,1.0,16.0,20,0.00,,,0.00,WUHU216DAVISVP2,2013-04-03 21:57:00,
2013-04-03 16:02:00,70.2,27.2,29.99,SE,141,1.0,13.0,20,0.00,,,0.00,WUHU216DAVISVP2,2013-04-03 22:02:00,
2013-04-03 16:07:00,70.9,26.5,29.98,SW,216,5.0,12.0,19,0.00,,,0.00,WUHU216DAVISVP2,2013-04-03 22:07:00,
2013-04-03 16:12:00,70.5,26.2,29.98,West,273,5.0,12.0,19,0.00,,,0.00,WUHU216DAVISVP2,2013-04-03 22:12:00,
2013-04-03 16:17:00,69.8,25.6,29.98,NW,313,4.0,12.0,19,0.00,,,0.00,WUHU216DAVISVP2,2013-04-03 22:17:00,
2013-04-03 16:22:00,69.8,25.6,29.98,SSW,199,5.0,12.0,19,0.00,,,0.00,WUHU216DAVISVP2,2013-04-03 22:22:00,
2013-04-03 16:27:00,70.1,25.9,29.98,WNW,290,3.0,12.0,19,0.00,,,0.00,WUHU216DAVISVP2,2013-04-03 22:27:00,
2013-04-03 16:32:00,69.9,24.4,29.97,South,191,5.0,12.0,18,0.00,,,0.00,WUHU216DAVISVP2,2013-04-03 22:32:00,
2013-04-03 16:37:00,70.1,25.9,29.97,SSW,205,7.0,12.0,19,0.00,,,0.00,WUHU216DAVISVP2,2013-04-03 22:37:00,
2013-04-03 16:43:00,70.3,26.1,29.97,SSW,208,10.0,13.0,19,0.00,,,0.00,WUHU216DAVISVP2,2013-04-03 22:43:00,
2013-04-03 16:48:00,70.3,24.8,29.97,SW,225,7.0,13.0,18,0.00,,,0.00,WUHU216DAVISVP2,2013-04-03 22:48:00,
2013-04-03 16:53:00,70.1,24.6,29.97,WSW,255,9.0,13.0,18,0.00,,,0.00,WUHU216DAVISVP2,2013-04-03 22:53:00,
2013-04-03 16:58:00,70.7,26.4,29.97,South,184,6.0,12.0,19,0.00,,,0.00,WUHU216DAVISVP2,2013-04-03 22:58:00,
2013-04-03 17:03:00,70.5,24.9,29.96,WSW,239,7.0,12.0,18,0.00,,,0.00,WUHU216DAVISVP2,2013-04-03 23:03:00,
2013-04-03 17:08:00,70.8,25.1,29.96,SSW,207,5.0,12.0,18,0.00,,,0.00,WUHU216DAVISVP2,2013-04-03 23:08:00,
2013-04-03 17:13:00,70.8,25.1,29.96,WSW,248,7.0,12.0,18,0.00,,,0.00,WUHU216DAVISVP2,2013-04-03 23:13:00,
2013-04-03 17:18:00,71.1,25.4,29.96,SE,131,2.0,12.0,18,0.00,,,0.00,WUHU216DAVISVP2,2013-04-03 23:18:00,
2013-04-03 17:23:00,71.2,26.8,29.96,WNW,295,2.0,11.0,19,0.00,,,0.00,WUHU216DAVISVP2,2013-04-03 23:23:00,
2013-04-03 17:28:00,70.4,24.8,29.96,SW,232,11.0,11.0,18,0.00,,,0.00,WUHU216DAVISVP2,2013-04-03 23:28:00,
2013-04-03 17:33:00,70.4,26.1,29.95,WNW,283,1.0,11.0,19,0.00,,,0.00,WUHU216DAVISVP2,2013-04-03 23:33:00,
2013-04-03 17:38:00,70.7,26.4,29.96,SW,218,5.0,11.0,19,0.00,,,0.00,WUHU216DAVISVP2,2013-04-03 23:38:00,
2013-04-03 17:43:00,70.5,24.9,29.96,West,274,4.0,12.0,18,0.00,,,0.00,WUHU216DAVISVP2,2013-04-03 23:43:00,
2013-04-03 17:48:00,70.1,24.6,29.95,SW,231,6.0,12.0,18,0.00,,,0.00,WUHU216DAVISVP2,2013-04-03 23:48:00,
2013-04-03 17:53:00,70.2,23.3,29.95,SW,218,4.0,12.0,17,0.00,,,0.00,WUHU216DAVISVP2,2013-04-03 23:53:00,
2013-04-03 17:59:00,70.6,26.3,29.95,SSW,212,2.0,12.0,19,0.00,,,0.00,WUHU216DAVISVP2,2013-04-03 23:59:00,
2013-04-03 18:04:00,70.2,24.7,29.95,SW,233,5.0,11.0,18,0.00,,,0.00,WUHU216DAVISVP2,2013-04-04 00:04:00,
2013-04-03 18:09:00,69.9,24.4,29.95,WSW,250,7.0,11.0,18,0.00,,,0.00,WUHU216DAVISVP2,2013-04-04 00:09:00,
2013-04-03 18:14:00,69.9,24.4,29.95,SSW,203,3.0,11.0,18,0.00,,,0.00,WUHU216DAVISVP2,2013-04-04 00:14:00,
2013-04-03 18:19:00,70.2,24.7,29.95,South,181,7.0,11.0,18,0.00,,,0.00,WUHU216DAVISVP2,2013-04-04 00:19:00,
2013-04-03 18:24:00,70.0,24.5,29.95,West,276,1.0,16.0,18,0.00,,,0.00,WUHU216DAVISVP2,2013-04-04 00:24:00,
2013-04-03 18:29:00,70.1,24.6,29.95,SSE,161,3.0,16.0,18,0.00,,,0.00,WUHU216DAVISVP2,2013-04-04 00:29:00,
2013-04-03 18:34:00,69.9,24.4,29.95,SSW,210,10.0,16.0,18,0.00,,,0.00,WUHU216DAVISVP2,2013-04-04 00:34:00,
2013-04-03 18:39:00,69.4,24.0,29.95,SSW,194,5.0,16.0,18,0.00,,,0.00,WUHU216DAVISVP2,2013-04-04 00:39:00,
2013-04-03 18:44:00,69.0,23.7,29.95,SW,222,9.0,14.0,18,0.00,,,0.00,WUHU216DAVISVP2,2013-04-04 00:44:00,
2013-04-03 18:49:00,68.9,24.9,29.95,SW,222,3.0,14.0,19,0.00,,,0.00,WUHU216DAVISVP2,2013-04-04 00:49:00,
2013-04-03 18:54:00,68.7,24.7,29.95,SSW,195,7.0,13.0,19,0.00,,,0.00,WUHU216DAVISVP2,2013-04-04 00:54:00,
2013-04-03 19:00:00,68.5,24.6,29.95,South,179,6.0,13.0,19,0.00,,,0.00,WUHU216DAVISVP2,2013-04-04 01:00:00,
2013-04-03 19:05:00,67.7,25.1,29.95,WSW,250,2.0,13.0,20,0.00,,,0.00,WUHU216DAVISVP2,2013-04-04 01:05:00,
2013-04-03 19:10:00,66.7,24.3,29.95,SSW,204,4.0,11.0,20,0.00,,,0.00,WUHU216DAVISVP2,2013-04-04 01:10:00,
2013-04-03 19:15:00,65.8,24.7,29.95,SW,222,4.0,11.0,21,0.00,,,0.00,WUHU216DAVISVP2,2013-04-04 01:15:00,
2013-04-03 19:20:00,65.4,25.5,29.95,SSW,197,3.0,11.0,22,0.00,,,0.00,WUHU216DAVISVP2,2013-04-04 01:20:00,
2013-04-03 19:25:00,65.7,24.6,29.95,SW,236,4.0,11.0,21,0.00,,,0.00,WUHU216DAVISVP2,2013-04-04 01:25:00,
2013-04-03 19:30:00,65.7,24.6,29.95,SW,215,4.0,11.0,21,0.00,,,0.00,WUHU216DAVISVP2,2013-04-04 01:30:00,
2013-04-03 19:35:00,65.4,24.4,29.95,SSW,205,4.0,10.0,21,0.00,,,0.00,WUHU216DAVISVP2,2013-04-04 01:35:00,
2013-04-03 19:40:00,64.9,25.0,29.95,SW,228,0.0,10.0,22,0.00,,,0.00,WUHU216DAVISVP2,2013-04-04 01:40:00,
2013-04-03 19:45:00,63.9,25.3,29.95,SW,226,0.0,8.0,23,0.00,,,0.00,WUHU216DAVISVP2,2013-04-04 01:45:00,
2013-04-03 19:50:00,62.8,24.3,29.95,WNW,285,2.0,6.0,23,0.00,,,0.00,WUHU216DAVISVP2,2013-04-04 01:50:00,
2013-04-03 19:55:00,62.2,24.8,29.95,West,278,1.0,4.0,24,0.00,,,0.00,WUHU216DAVISVP2,2013-04-04 01:55:00,
2013-04-03 20:00:00,61.4,24.1,29.96,WNW,297,3.0,4.0,24,0.00,,,0.00,WUHU216DAVISVP2,2013-04-04 02:00:00,
2013-04-03 20:05:00,60.6,24.4,29.96,WNW,297,3.0,4.0,25,0.00,,,0.00,WUHU216DAVISVP2,2013-04-04 02:05:00,
2013-04-03 20:10:00,60.6,24.4,29.96,West,273,3.0,5.0,25,0.00,,,0.00,WUHU216DAVISVP2,2013-04-04 02:10:00,
2013-04-03 20:15:00,60.5,25.3,29.96,WNW,300,2.0,5.0,26,0.00,,,0.00,WUHU216DAVISVP2,2013-04-04 02:15:00,
2013-04-03 20:20:00,60.4,25.2,29.96,West,263,2.0,5.0,26,0.00,,,0.00,WUHU216DAVISVP2,2013-04-04 02:20:00,
2013-04-03 20:25:00,59.9,24.7,29.96,WNW,291,0.0,5.0,26,0.00,,,0.00,WUHU216DAVISVP2,2013-04-04 02:25:00,
2013-04-03 20:30:00,59.8,25.6,29.96,WNW,285,1.0,4.0,27,0.00,,,0.00,WUHU216DAVISVP2,2013-04-04 02:30:00,
2013-04-03 20:35:00,59.3,25.1,29.97,WNW,288,1.0,4.0,27,0.00,,,0.00,WUHU216DAVISVP2,2013-04-04 02:35:00,
2013-04-03 20:40:00,58.9,24.8,29.97,West,280,0.0,3.0,27,0.00,,,0.00,WUHU216DAVISVP2,2013-04-04 02:40:00,
2013-04-03 20:45:00,58.5,25.3,29.97,West,276,0.0,2.0,28,0.00,,,0.00,WUHU216DAVISVP2,2013-04-04 02:45:00,
2013-04-03 20:50:00,58.6,26.2,29.98,WNW,295,1.0,2.0,29,0.00,,,0.00,WUHU216DAVISVP2,2013-04-04 02:50:00,
2013-04-03 20:55:00,58.4,26.9,29.98,West,274,1.0,2.0,30,0.00,,,0.00,WUHU216DAVISVP2,2013-04-04 02:55:00,
2013-04-03 21:00:00,58.3,26.8,29.98,West,278,1.0,2.0,30,0.00,,,0.00,WUHU216DAVISVP2,2013-04-04 03:00:00,
2013-04-03 21:05:00,58.1,27.4,29.98,West,277,0.0,2.0,31,0.00,,,0.00,WUHU216DAVISVP2,2013-04-04 03:05:00,
2013-04-03 21:10:00,57.9,27.4,29.99,WNW,283,1.0,2.0,31,0.00,,,0.00,WUHU216DAVISVP2,2013-04-04 03:10:00,
2013-04-03 21:15:00,57.9,27.4,29.99,NW,314,0.0,4.0,31,0.00,,,0.00,WUHU216DAVISVP2,2013-04-04 03:15:00,
2013-04-03 21:20:00,58.4,27.1,29.99,West,269,2.0,5.0,30,0.00,,,0.00,WUHU216DAVISVP2,2013-04-04 03:20:00,
2013-04-03 21:25:00,58.7,26.3,30.00,West,276,3.0,5.0,29,0.00,,,0.00,WUHU216DAVISVP2,2013-04-04 03:25:00,
2013-04-03 21:30:00,59.2,26.7,30.00,NW,311,4.0,6.0,29,0.00,,,0.00,WUHU216DAVISVP2,2013-04-04 03:30:00,
2013-04-03 21:35:00,59.6,25.4,30.00,WNW,302,5.0,7.0,27,0.00,,,0.00,WUHU216DAVISVP2,2013-04-04 03:35:00,
2013-04-03 21:40:00,60.0,25.7,30.00,NW,316,4.0,11.0,27,0.00,,,0.00,WUHU216DAVISVP2,2013-04-04 03:40:00,
2013-04-03 21:45:00,60.2,25.9,30.01,NNW,328,5.0,11.0,27,0.00,,,0.00,WUHU216DAVISVP2,2013-04-04 03:45:00,
2013-04-03 21:50:00,60.0,25.7,30.01,NW,325,3.0,11.0,27,0.00,,,0.00,WUHU216DAVISVP2,2013-04-04 03:50:00,
2013-04-03 21:55:00,59.9,25.6,30.01,WNW,288,4.0,11.0,27,0.00,,,0.00,WUHU216DAVISVP2,2013-04-04 03:55:00,
2013-04-03 22:00:00,59.9,26.5,30.01,NW,316,2.0,8.0,28,0.00,,,0.00,WUHU216DAVISVP2,2013-04-04 04:00:00,
2013-04-03 22:05:00,59.8,26.4,30.01,WNW,284,1.0,8.0,28,0.00,,,0.00,WUHU216DAVISVP2,2013-04-04 04:05:00,
2013-04-03 22:10:00,59.2,26.7,30.01,NW,317,4.0,8.0,29,0.00,,,0.00,WUHU216DAVISVP2,2013-04-04 04:10:00,
2013-04-03 22:15:00,59.6,27.1,30.01,WNW,301,2.0,8.0,29,0.00,,,0.00,WUHU216DAVISVP2,2013-04-04 04:15:00,
2013-04-03 22:20:00,60.0,28.3,30.01,NNE,18,1.0,7.0,30,0.00,,,0.00,WUHU216DAVISVP2,2013-04-04 04:20:00,
2013-04-03 22:25:00,60.3,27.7,30.01,WNW,297,3.0,9.0,29,0.00,,,0.00,WUHU216DAVISVP2,2013-04-04 04:25:00,
2013-04-03 22:30:00,60.2,27.6,30.01,NW,304,2.0,9.0,29,0.00,,,0.00,WUHU216DAVISVP2,2013-04-04 04:30:00,
2013-04-03 22:35:00,60.3,28.5,30.01,NNE,20,4.0,9.0,30,0.00,,,0.00,WUHU216DAVISVP2,2013-04-04 04:35:00,
2013-04-03 22:40:00,60.2,28.4,30.01,NNW,339,6.0,11.0,30,0.00,,,0.00,WUHU216DAVISVP2,2013-04-04 04:40:00,
2013-04-03 22:45:00,60.1,28.5,30.01,NNW,330,6.0,11.0,30,0.00,,,0.00,WUHU216DAVISVP2,2013-04-04 04:45:00,
2013-04-03 22:50:00,60.4,28.0,30.01,NNW,332,7.0,13.0,29,0.00,,,0.00,WUHU216DAVISVP2,2013-04-04 04:50:00,
2013-04-03 22:55:00,60.6,28.1,30.01,NNW,335,6.0,13.0,29,0.00,,,0.00,WUHU216DAVISVP2,2013-04-04 04:55:00,
2013-04-03 23:00:00,60.8,27.3,30.02,ENE,58,1.0,13.0,28,0.00,,,0.00,WUHU216DAVISVP2,2013-04-04 05:00:00,
2013-04-03 23:05:00,58.6,25.4,30.02,ESE,115,1.0,13.0,28,0.00,,,0.00,WUHU216DAVISVP2,2013-04-04 05:05:00,
2013-04-03 23:10:00,56.0,25.6,30.02,East,86,2.0,13.0,31,0.00,,,0.00,WUHU216DAVISVP2,2013-04-04 05:10:00,
2013-04-03 23:15:00,54.5,25.7,30.02,NE,54,2.0,12.0,33,0.00,,,0.00,WUHU216DAVISVP2,2013-04-04 05:15:00,
2013-04-03 23:20:00,54.1,26.8,30.02,East,85,1.0,3.0,35,0.00,,,0.00,WUHU216DAVISVP2,2013-04-04 05:20:00,
2013-04-03 23:25:00,54.0,26.7,30.02,ENE,69,2.0,3.0,35,0.00,,,0.00,WUHU216DAVISVP2,2013-04-04 05:25:00,
2013-04-03 23:30:00,53.6,26.4,30.02,ENE,57,2.0,4.0,35,0.00,,,0.00,WUHU216DAVISVP2,2013-04-04 05:30:00,
2013-04-03 23:35:00,53.0,25.8,30.02,NE,43,3.0,4.0,35,0.00,,,0.00,WUHU216DAVISVP2,2013-04-04 05:35:00,
2013-04-03 23:40:00,53.1,26.6,30.02,NE,53,2.0,4.0,36,0.00,,,0.00,WUHU216DAVISVP2,2013-04-04 05:40:00,
2013-04-03 23:45:00,53.3,26.8,30.02,NE,51,3.0,4.0,36,0.00,,,0.00,WUHU216DAVISVP2,2013-04-04 05:45:00,
2013-04-03 23:50:00,53.3,27.5,30.02,ENE,57,1.0,4.0,37,0.00,,,0.00,WUHU216DAVISVP2,2013-04-04 05:50:00,
2013-04-03 23:55:00,52.9,27.1,30.02,East,92,1.0,4.0,37,0.00,,,0.00,WUHU216DAVISVP2,2013-04-04 05:55:00,